createdAt,value
2019-03-02T00:01:04.974Z,53.33
2019-03-02T00:03:34.841Z,53.46
2019-03-02T00:06:05.373Z,53.58
2019-03-02T00:08:34.858Z,53.63
2019-03-02T00:11:04.390Z,53.10
2019-03-02T00:13:33.836Z,53.12
2019-03-02T00:16:04.376Z,53.58
2019-03-02T00:18:34.560Z,53.76
2019-03-02T00:21:04.018Z,53.50
2019-03-02T00:23:33.528Z,53.66
2019-03-02T00:26:06.219Z,53.78
2019-03-02T00:28:35.579Z,54.10
2019-03-02T00:31:05.196Z,54.16
2019-03-02T00:33:34.626Z,54.58
2019-03-02T00:36:04.110Z,54.38
2019-03-02T00:38:33.606Z,53.92
2019-03-02T00:41:03.800Z,53.77
2019-03-02T00:43:34.178Z,54.02
2019-03-02T00:46:04.358Z,53.70
2019-03-02T00:48:33.828Z,53.14
2019-03-02T00:51:03.258Z,52.69
2019-03-02T00:53:35.544Z,52.77
2019-03-02T00:56:07.435Z,52.69
2019-03-02T00:58:35.649Z,52.43
2019-03-02T01:01:05.365Z,52.36
2019-03-02T01:03:34.814Z,52.71
2019-03-02T01:06:04.225Z,52.67
2019-03-02T01:08:35.080Z,52.57
2019-03-02T01:11:04.960Z,52.99
2019-03-02T01:13:34.412Z,53.05
2019-03-02T01:16:03.860Z,53.34
2019-03-02T01:18:33.325Z,53.45
2019-03-02T01:21:03.899Z,53.62
2019-03-02T01:23:34.037Z,53.84
2019-03-02T01:26:03.467Z,54.38
2019-03-02T01:28:32.932Z,54.84
2019-03-02T01:31:05.113Z,55.55
2019-03-02T01:33:33.686Z,56.00
2019-03-02T01:36:03.131Z,56.10
2019-03-02T01:38:32.627Z,56.45
2019-03-02T01:41:02.029Z,56.33
2019-03-02T01:43:31.473Z,56.14
2019-03-02T01:46:03.391Z,55.83
2019-03-02T01:48:32.177Z,56.02
2019-03-02T01:51:01.585Z,55.75
2019-03-02T01:53:31.098Z,54.98
2019-03-02T01:56:02.700Z,54.71
2019-03-02T01:58:31.738Z,54.18
2019-03-02T02:01:01.465Z,53.76
2019-03-02T02:03:30.923Z,53.67
2019-03-02T02:06:03.746Z,53.35
2019-03-02T02:08:31.628Z,53.31
2019-03-02T02:11:01.033Z,53.35
2019-03-02T02:13:30.482Z,53.06
2019-03-02T02:16:01.732Z,53.00
2019-03-02T02:18:31.170Z,52.68
2019-03-02T02:21:00.563Z,52.50
2019-03-02T02:23:30.079Z,52.17
2019-03-02T02:25:59.586Z,51.93
2019-03-02T02:28:31.979Z,51.63
2019-03-02T02:31:01.731Z,51.47
2019-03-02T02:33:31.662Z,50.87
2019-03-02T02:36:01.120Z,50.79
2019-03-02T02:38:30.603Z,50.60
2019-03-02T02:41:00.568Z,50.30
2019-03-02T02:43:30.015Z,50.15
2019-03-02T02:45:59.722Z,50.33
2019-03-02T02:48:31.316Z,49.77
2019-03-02T02:51:04.327Z,49.44
2019-03-02T02:53:31.510Z,48.92
2019-03-02T02:56:01.023Z,48.66
2019-03-02T02:58:30.465Z,48.54
2019-03-02T03:00:59.997Z,48.52
2019-03-02T03:03:29.418Z,48.33
2019-03-02T03:05:58.799Z,48.41
2019-03-02T03:08:44.162Z,48.09
2019-03-02T03:11:14.457Z,48.13
2019-03-02T03:13:43.882Z,48.14
2019-03-02T03:16:16.765Z,48.01
2019-03-02T03:18:47.176Z,47.92
2019-03-02T03:21:15.923Z,47.92
2019-03-02T03:23:45.400Z,47.75
2019-03-02T03:26:14.786Z,47.73
2019-03-02T03:28:44.236Z,47.67
2019-03-02T03:31:22.186Z,47.61
2019-03-02T03:33:47.308Z,47.51
2019-03-02T03:36:16.593Z,47.53
2019-03-02T03:38:46.081Z,47.53
2019-03-02T03:41:15.482Z,47.34
2019-03-02T03:43:44.926Z,47.37
2019-03-02T03:46:18.029Z,46.97
2019-03-02T03:48:45.657Z,46.88
2019-03-02T03:51:15.026Z,46.68
2019-03-02T03:53:44.531Z,46.71
2019-03-02T03:56:14.182Z,46.71
2019-03-02T03:58:43.714Z,46.58
2019-03-02T04:01:17.843Z,46.76
2019-03-02T04:03:47.221Z,46.55
2019-03-02T04:06:15.704Z,46.53
2019-03-02T04:08:45.185Z,46.44
2019-03-02T04:11:16.879Z,46.44
2019-03-02T04:13:46.595Z,46.37
2019-03-02T04:16:20.729Z,46.49
2019-03-02T04:18:58.396Z,46.56
2019-03-02T04:21:32.164Z,46.55
2019-03-02T04:24:03.151Z,46.67
2019-03-02T04:26:36.615Z,46.50
2019-03-02T04:29:09.171Z,46.46
2019-03-02T04:31:35.445Z,46.44
2019-03-02T04:34:04.892Z,46.52
2019-03-02T04:36:34.468Z,46.47
2019-03-02T04:39:09.480Z,46.62
2019-03-02T04:41:39.652Z,46.74
2019-03-02T04:44:08.254Z,46.80
2019-03-02T04:46:37.655Z,46.93
2019-03-02T04:49:07.099Z,47.05
2019-03-02T04:51:38.787Z,46.84
2019-03-02T04:54:07.791Z,46.93
2019-03-02T04:56:37.449Z,46.81
2019-03-02T04:59:07.168Z,46.73
2019-03-02T05:01:38.956Z,46.73
2019-03-02T05:04:07.728Z,46.61
2019-03-02T05:06:38.789Z,46.54
2019-03-02T05:09:08.974Z,46.36
2019-03-02T05:11:39.292Z,46.46
2019-03-02T05:14:10.161Z,46.38
2019-03-02T05:16:39.648Z,46.42
2019-03-02T05:19:09.077Z,46.56
2019-03-02T05:21:39.817Z,46.75
2019-03-02T05:24:10.213Z,46.96
2019-03-02T05:26:39.870Z,47.15
2019-03-02T05:29:14.816Z,47.28
2019-03-02T05:31:42.585Z,47.41
2019-03-02T05:34:12.023Z,47.39
2019-03-02T05:36:41.513Z,47.34
2019-03-02T05:39:13.903Z,47.37
2019-03-02T05:41:42.205Z,47.59
2019-03-02T05:44:11.756Z,47.44
2019-03-02T05:46:41.161Z,47.39
2019-03-02T05:49:10.618Z,47.35
2019-03-02T05:51:42.706Z,47.27
2019-03-02T05:54:11.323Z,47.28
2019-03-02T05:56:40.718Z,47.43
2019-03-02T05:59:10.219Z,47.23
2019-03-02T06:01:40.472Z,47.22
2019-03-02T06:04:10.649Z,47.08
2019-03-02T06:06:40.074Z,46.86
2019-03-02T06:09:13.976Z,46.82
2019-03-02T06:11:42.941Z,46.85
2019-03-02T06:14:12.404Z,46.56
2019-03-02T06:16:41.947Z,46.20
2019-03-02T06:19:11.417Z,46.10
2019-03-02T06:21:42.836Z,45.91
2019-03-02T06:24:12.283Z,45.84
2019-03-02T06:26:41.812Z,45.90
2019-03-02T06:29:11.317Z,45.76
2019-03-02T06:31:40.833Z,45.73
2019-03-02T06:34:10.262Z,45.66
2019-03-02T06:36:40.888Z,45.60
2019-03-02T06:39:11.267Z,45.57
2019-03-02T06:41:40.662Z,45.91
2019-03-02T06:44:10.090Z,46.04
2019-03-02T06:46:39.501Z,46.15
2019-03-02T06:49:08.898Z,46.48
2019-03-02T06:51:38.347Z,45.92
2019-03-02T06:54:09.094Z,45.87
2019-03-02T06:56:39.598Z,45.76
2019-03-02T06:59:10.305Z,45.99
2019-03-02T07:01:39.735Z,45.91
2019-03-02T07:04:10.776Z,45.85
2019-03-02T07:06:43.516Z,45.88
2019-03-02T07:09:12.325Z,45.80
2019-03-02T07:11:41.757Z,46.13
2019-03-02T07:14:11.278Z,45.93
2019-03-02T07:16:40.662Z,45.75
2019-03-02T07:19:25.037Z,45.87
2019-03-02T07:21:57.649Z,45.58
2019-03-02T07:24:29.507Z,45.38
2019-03-02T07:26:58.246Z,45.54
2019-03-02T07:29:31.952Z,45.31
2019-03-02T07:32:02.155Z,45.02
2019-03-02T07:34:31.603Z,44.70
2019-03-02T07:37:01.039Z,44.47
2019-03-02T07:39:32.715Z,44.39
2019-03-02T07:42:02.120Z,44.63
2019-03-02T07:44:32.590Z,44.96
2019-03-02T07:47:02.023Z,44.83
2019-03-02T07:49:31.517Z,44.82
2019-03-02T07:52:01.005Z,44.42
2019-03-02T07:54:30.463Z,43.97
2019-03-02T07:56:59.850Z,43.70
2019-03-02T07:59:29.595Z,43.41
2019-03-02T08:02:00.955Z,43.59
2019-03-02T08:04:30.434Z,43.30
2019-03-02T08:07:01.410Z,43.50
2019-03-02T08:09:31.208Z,43.32
2019-03-02T08:12:00.740Z,43.42
2019-03-02T08:14:30.172Z,43.90
2019-03-02T08:16:59.681Z,44.02
2019-03-02T08:19:29.180Z,43.68
2019-03-02T08:21:58.688Z,43.87
2019-03-02T08:24:28.204Z,44.29
2019-03-02T08:26:57.682Z,44.43
2019-03-02T08:29:27.163Z,43.84
2019-03-02T08:31:56.607Z,43.92
2019-03-02T08:34:26.122Z,43.40
2019-03-02T08:36:55.621Z,43.62
2019-03-02T08:39:25.163Z,43.64
2019-03-02T08:41:54.601Z,43.51
2019-03-02T08:44:24.117Z,42.53
2019-03-02T08:46:53.885Z,43.08
2019-03-02T08:49:23.338Z,42.64
2019-03-02T08:51:52.754Z,42.58
2019-03-02T08:54:22.385Z,42.98
2019-03-02T08:56:51.882Z,42.83
2019-03-02T08:59:21.350Z,42.82
2019-03-02T09:01:51.330Z,43.70
2019-03-02T09:04:22.045Z,43.82
2019-03-02T09:06:51.539Z,43.54
2019-03-02T09:09:22.519Z,43.69
2019-03-02T09:11:52.120Z,44.00
2019-03-02T09:14:21.552Z,43.89
2019-03-02T09:16:51.144Z,43.72
2019-03-02T09:19:23.981Z,43.30
2019-03-02T09:21:51.964Z,43.08
2019-03-02T09:24:21.695Z,42.62
2019-03-02T09:26:51.077Z,42.38
2019-03-02T09:29:20.555Z,41.87
2019-03-02T09:31:50.107Z,41.65
2019-03-02T09:34:19.524Z,41.77
2019-03-02T09:36:49.495Z,41.89
2019-03-02T09:39:19.132Z,42.04
2019-03-02T09:41:48.543Z,42.30
2019-03-02T09:44:17.976Z,41.72
2019-03-02T09:46:47.539Z,40.90
2019-03-02T09:49:17.010Z,40.76
2019-03-02T09:51:48.290Z,40.74
2019-03-02T09:54:17.610Z,40.63
2019-03-02T09:56:47.183Z,41.01
2019-03-02T09:59:16.680Z,40.71
2019-03-02T10:01:48.052Z,40.12
2019-03-02T10:04:17.280Z,40.93
2019-03-02T10:06:47.812Z,40.46
2019-03-02T10:09:17.496Z,40.35
2019-03-02T10:11:46.924Z,39.30
2019-03-02T10:14:26.839Z,39.51
2019-03-02T10:16:56.492Z,39.49
2019-03-02T10:19:28.887Z,38.98
2019-03-02T10:21:57.363Z,38.44
2019-03-02T10:24:26.801Z,37.97
2019-03-02T10:26:56.181Z,37.47
2019-03-02T10:29:25.691Z,37.58
2019-03-02T10:31:55.191Z,36.09
2019-03-02T10:34:24.694Z,35.09
2019-03-02T10:36:54.354Z,35.42
2019-03-02T10:39:23.852Z,34.68
2019-03-02T10:41:56.709Z,34.63
2019-03-02T10:44:24.748Z,34.08
2019-03-02T10:46:54.130Z,33.99
2019-03-02T10:49:23.580Z,35.28
2019-03-02T10:51:53.128Z,35.18
2019-03-02T10:54:23.580Z,35.51
2019-03-02T10:56:53.114Z,36.53
2019-03-02T10:59:22.730Z,36.78
2019-03-02T11:01:52.169Z,36.88
2019-03-02T11:04:46.874Z,34.91
2019-03-02T11:07:34.032Z,33.96
2019-03-02T11:10:31.714Z,33.83
2019-03-02T11:13:29.285Z,34.33
2019-03-02T11:16:23.765Z,34.64
2019-03-02T11:19:15.019Z,34.98
2019-03-02T11:22:03.431Z,34.35
2019-03-02T11:24:52.070Z,33.81
2019-03-02T11:27:38.296Z,33.38
2019-03-02T11:30:23.881Z,32.97
2019-03-02T11:33:10.753Z,32.90
2019-03-02T11:35:57.726Z,33.51
2019-03-02T11:38:40.443Z,33.82
2019-03-02T11:41:20.906Z,33.31
2019-03-02T11:44:09.000Z,32.86
2019-03-02T11:46:48.061Z,33.30
2019-03-02T11:49:42.392Z,33.44
2019-03-02T11:52:29.440Z,33.32
2019-03-02T11:55:20.618Z,32.99
2019-03-02T11:58:07.416Z,32.85
2019-03-02T12:00:54.145Z,33.04
2019-03-02T12:03:43.081Z,35.28
2019-03-02T12:06:37.871Z,36.65
2019-03-02T12:09:15.867Z,36.82
2019-03-02T12:11:50.541Z,37.42
2019-03-02T12:14:42.899Z,38.63
2019-03-02T12:17:37.816Z,38.48
2019-03-02T12:20:23.643Z,38.55
2019-03-02T12:23:13.543Z,38.97
2019-03-02T12:25:53.482Z,39.51
2019-03-02T12:28:41.902Z,40.41
2019-03-02T12:31:17.686Z,40.88
2019-03-02T12:33:57.638Z,41.04
2019-03-02T12:36:53.207Z,41.02
2019-03-02T12:40:20.399Z,41.55
2019-03-02T12:43:09.365Z,40.95
2019-03-02T12:45:53.107Z,40.80
2019-03-02T12:48:50.346Z,40.17
2019-03-02T12:51:50.941Z,40.99
2019-03-02T12:54:45.091Z,40.43
2019-03-02T12:57:33.553Z,40.38
2019-03-02T13:00:34.254Z,39.90
2019-03-02T13:03:22.322Z,39.88
2019-03-02T13:06:09.593Z,38.81
2019-03-02T13:09:09.887Z,38.48
2019-03-02T13:11:50.906Z,38.49
2019-03-02T13:14:40.688Z,39.68
2019-03-02T13:17:22.593Z,42.82
2019-03-02T13:20:16.315Z,43.00
2019-03-02T13:22:58.606Z,42.88
2019-03-02T13:25:46.050Z,43.36
2019-03-02T13:28:46.482Z,41.55
2019-03-02T13:31:34.896Z,41.18
2019-03-02T13:34:22.043Z,41.50
2019-03-02T13:37:03.105Z,40.07
2019-03-02T13:39:57.467Z,39.15
2019-03-02T13:42:50.938Z,39.21
2019-03-02T13:45:25.124Z,38.79
2019-03-02T13:48:12.251Z,38.77
2019-03-02T13:50:53.741Z,38.81
2019-03-02T13:53:38.859Z,38.25
2019-03-02T13:56:32.875Z,38.82
2019-03-02T13:59:17.960Z,38.86
2019-03-02T14:02:12.113Z,39.01
2019-03-02T14:05:05.701Z,39.32
2019-03-02T14:07:59.131Z,42.42
2019-03-02T14:10:50.162Z,44.78
2019-03-02T14:13:50.851Z,46.51
2019-03-02T14:16:42.880Z,46.97
2019-03-02T14:19:29.657Z,47.56
2019-03-02T14:22:21.621Z,47.86
2019-03-02T14:25:03.517Z,47.89
2019-03-02T14:27:58.774Z,47.82
2019-03-02T14:30:40.711Z,47.04
2019-03-02T14:33:15.789Z,47.91
2019-03-02T14:36:22.185Z,47.96
2019-03-02T14:39:10.723Z,47.91
2019-03-02T14:41:59.165Z,48.09
2019-03-02T14:44:35.322Z,47.84
2019-03-02T14:47:33.156Z,46.88
2019-03-02T14:50:19.885Z,47.48
2019-03-02T14:53:10.072Z,47.42
2019-03-02T14:55:49.829Z,47.59
2019-03-02T14:58:37.703Z,47.79
2019-03-02T15:01:39.946Z,48.02
2019-03-02T15:04:28.966Z,49.11
2019-03-02T15:07:18.395Z,49.86
2019-03-02T15:10:14.171Z,50.02
2019-03-02T15:13:03.581Z,50.29
2019-03-02T15:15:42.044Z,49.88
2019-03-02T15:18:36.343Z,51.42
2019-03-02T15:21:39.781Z,51.81
2019-03-02T15:24:26.065Z,52.73
2019-03-02T15:27:01.161Z,53.94
2019-03-02T15:29:55.155Z,54.49
2019-03-02T15:32:38.539Z,52.56
2019-03-02T15:35:19.283Z,53.81
2019-03-02T15:38:04.657Z,54.19
2019-03-02T15:40:48.031Z,53.95
2019-03-02T15:43:45.108Z,53.34
2019-03-02T15:46:36.005Z,51.93
2019-03-02T15:49:14.537Z,49.86
2019-03-02T15:52:07.782Z,49.76
2019-03-02T15:54:43.303Z,50.44
2019-03-02T15:57:39.276Z,51.98
2019-03-02T16:00:39.455Z,57.61
2019-03-02T16:03:30.533Z,60.00
2019-03-02T16:06:27.891Z,61.14
2019-03-02T16:09:16.380Z,61.01
2019-03-02T16:12:08.413Z,60.64
2019-03-02T16:14:49.972Z,60.61
2019-03-02T16:17:40.039Z,64.50
2019-03-02T16:20:22.996Z,62.76
2019-03-02T16:22:59.064Z,62.74
2019-03-02T16:25:56.487Z,63.47
2019-03-02T16:28:38.930Z,63.57
2019-03-02T16:31:25.263Z,64.24
2019-03-02T16:34:13.672Z,64.95
2019-03-02T16:37:20.387Z,65.84
2019-03-02T16:40:05.758Z,66.71
2019-03-02T16:43:05.075Z,69.66
2019-03-02T16:45:44.323Z,71.10
2019-03-02T16:48:44.904Z,69.28
2019-03-02T16:51:29.631Z,66.91
2019-03-02T16:54:24.844Z,67.55
2019-03-02T16:57:30.140Z,67.47
2019-03-02T17:00:21.286Z,69.78
2019-03-02T17:03:08.300Z,65.42
2019-03-02T17:05:50.262Z,66.98
2019-03-02T17:08:55.237Z,66.02
2019-03-02T17:11:32.003Z,68.08
2019-03-02T17:14:27.587Z,70.83
2019-03-02T17:17:17.259Z,73.06
2019-03-02T17:19:55.310Z,76.18
2019-03-02T17:22:38.527Z,78.38
2019-03-02T17:25:12.888Z,80.59
2019-03-02T17:27:58.103Z,83.24
2019-03-02T17:30:50.461Z,84.68
2019-03-02T17:33:40.709Z,87.90
2019-03-02T17:36:27.743Z,89.45
2019-03-02T17:39:31.109Z,90.96
2019-03-02T17:42:17.777Z,92.29
2019-03-02T17:45:04.473Z,94.29
2019-03-02T17:47:51.144Z,96.06
2019-03-02T17:50:42.473Z,97.61
2019-03-02T17:53:28.504Z,98.82
2019-03-02T17:56:31.935Z,100.00
2019-03-02T17:59:22.822Z,100.00
2019-03-02T18:02:13.864Z,100.00
2019-03-02T18:05:08.011Z,100.00
2019-03-02T18:07:53.864Z,100.00
2019-03-02T18:10:42.804Z,100.00
2019-03-02T18:13:24.452Z,100.00
2019-03-02T18:16:05.670Z,100.00
2019-03-02T18:18:32.831Z,100.00
2019-03-02T18:21:02.280Z,100.00
2019-03-02T18:23:31.764Z,100.00
2019-03-02T18:26:01.208Z,100.00
2019-03-02T18:28:30.690Z,100.00
2019-03-02T18:31:00.274Z,100.00
2019-03-02T18:33:51.460Z,100.00
2019-03-02T18:36:20.849Z,100.00
2019-03-02T18:38:50.442Z,100.00
2019-03-02T18:41:20.142Z,100.00
2019-03-02T18:43:49.509Z,100.00
2019-03-02T18:46:18.938Z,100.00
2019-03-02T18:49:19.271Z,100.00
2019-03-02T18:52:10.767Z,100.00
2019-03-02T18:54:40.198Z,100.00
2019-03-02T18:57:09.905Z,100.00
2019-03-02T18:59:43.391Z,100.00
2019-03-02T19:02:12.742Z,100.00
2019-03-02T19:04:42.137Z,100.00
2019-03-02T19:07:11.509Z,100.00
2019-03-02T19:09:41.294Z,100.00
2019-03-02T19:12:10.778Z,100.00
2019-03-02T19:14:40.149Z,100.00
2019-03-02T19:17:09.692Z,100.00
2019-03-02T19:19:39.170Z,100.00
2019-03-02T19:22:08.654Z,100.00
2019-03-02T19:24:38.084Z,100.00
2019-03-02T19:27:07.534Z,100.00
2019-03-02T19:29:37.314Z,100.00
2019-03-02T19:32:06.923Z,100.00
2019-03-02T19:34:36.303Z,100.00
2019-03-02T19:37:05.681Z,100.00
2019-03-02T19:39:35.369Z,100.00
2019-03-02T19:42:04.834Z,100.00
2019-03-02T19:44:34.218Z,100.00
2019-03-02T19:47:03.823Z,100.00
2019-03-02T19:49:33.207Z,100.00
2019-03-02T19:52:02.574Z,100.00
2019-03-02T19:54:32.271Z,100.00
2019-03-02T19:57:01.742Z,100.00
2019-03-02T19:59:31.136Z,100.00
2019-03-02T20:02:00.703Z,100.00
2019-03-02T20:04:30.174Z,100.00
2019-03-02T20:06:59.646Z,100.00
2019-03-02T20:09:29.057Z,100.00
2019-03-02T20:11:58.447Z,100.00
2019-03-02T20:14:27.931Z,100.00
2019-03-02T20:16:57.445Z,100.00
2019-03-02T20:19:26.828Z,100.00
2019-03-02T20:21:56.300Z,100.00
2019-03-02T20:24:25.836Z,100.00
2019-03-02T20:26:55.220Z,100.00
2019-03-02T20:29:24.690Z,100.00
2019-03-02T20:31:54.403Z,100.00
2019-03-02T20:34:23.790Z,100.00
2019-03-02T20:36:53.153Z,100.00
2019-03-02T20:39:22.668Z,100.00
2019-03-02T20:41:52.257Z,100.00
2019-03-02T20:44:21.660Z,100.00
2019-03-02T20:46:51.111Z,100.00
2019-03-02T20:49:20.594Z,100.00
2019-03-02T20:51:50.092Z,100.00
2019-03-02T20:54:19.539Z,100.00
2019-03-02T20:56:48.919Z,100.00
2019-03-02T20:59:18.406Z,100.00
2019-03-02T21:01:47.950Z,100.00
2019-03-02T21:04:17.492Z,100.00
2019-03-02T21:06:46.962Z,100.00
2019-03-02T21:09:16.612Z,100.00
2019-03-02T21:11:46.070Z,100.00
2019-03-02T21:14:15.690Z,100.00
2019-03-02T21:16:45.430Z,100.00
2019-03-02T21:19:14.822Z,100.00
2019-03-02T21:21:44.374Z,100.00
2019-03-02T21:24:13.899Z,100.00
2019-03-02T21:26:43.476Z,100.00
2019-03-02T21:29:12.871Z,100.00
2019-03-02T21:31:42.376Z,100.00
2019-03-02T21:34:11.880Z,100.00
2019-03-02T21:36:41.374Z,100.00
2019-03-02T21:39:11.398Z,100.00
2019-03-02T21:41:40.781Z,100.00
2019-03-02T21:44:10.303Z,100.00
2019-03-02T21:46:39.843Z,100.00
2019-03-02T21:49:09.351Z,100.00
2019-03-02T21:51:38.753Z,100.00
2019-03-02T21:54:08.291Z,100.00
2019-03-02T21:56:37.783Z,100.00
2019-03-02T21:59:07.176Z,100.00
2019-03-02T22:01:36.657Z,100.00
2019-03-02T22:04:06.160Z,100.00
2019-03-02T22:06:35.650Z,100.00
2019-03-02T22:09:06.656Z,100.00
2019-03-02T22:11:36.059Z,100.00
2019-03-02T22:14:05.646Z,100.00
2019-03-02T22:16:35.161Z,100.00
2019-03-02T22:19:04.546Z,100.00
2019-03-02T22:21:33.934Z,100.00
2019-03-02T22:24:03.480Z,100.00
2019-03-02T22:26:32.896Z,100.00
2019-03-02T22:29:02.487Z,100.00
2019-03-02T22:31:32.014Z,100.00
2019-03-02T22:34:01.429Z,100.00
2019-03-02T22:36:30.821Z,100.00
2019-03-02T22:39:00.369Z,100.00
2019-03-02T22:41:29.872Z,100.00
2019-03-02T22:43:59.266Z,100.00
2019-03-02T22:46:28.760Z,100.00
2019-03-02T22:48:58.248Z,100.00
2019-03-02T22:51:27.728Z,100.00
2019-03-02T22:53:57.184Z,100.00
2019-03-02T22:56:26.587Z,100.00
2019-03-02T22:58:55.085Z,100.00
2019-03-02T23:01:40.029Z,100.00
2019-03-02T23:04:09.427Z,100.00
2019-03-02T23:06:38.996Z,100.00
2019-03-02T23:09:11.230Z,100.00
2019-03-02T23:11:40.634Z,100.00
2019-03-02T23:14:10.137Z,100.00
2019-03-02T23:16:39.678Z,100.00
2019-03-02T23:19:09.085Z,100.00
2019-03-02T23:21:38.487Z,100.00
2019-03-02T23:24:08.178Z,100.00
2019-03-02T23:26:37.673Z,100.00
2019-03-02T23:29:07.060Z,100.00
2019-03-02T23:31:36.514Z,100.00
2019-03-02T23:34:06.123Z,100.00
2019-03-02T23:36:35.621Z,100.00
2019-03-02T23:39:07.182Z,100.00
2019-03-02T23:41:36.572Z,100.00
2019-03-02T23:44:06.079Z,100.00
2019-03-02T23:46:35.529Z,100.00
2019-03-02T23:49:05.033Z,100.00
2019-03-02T23:51:34.536Z,100.00
2019-03-02T23:54:03.991Z,100.00
2019-03-02T23:56:33.477Z,100.00
2019-03-02T23:59:02.971Z,100.00
